Time;durP1;ratioP1;P1;durP2;ratioP2;P2;SDS_P1;SDS_P2;PMS_P1;PMS_P2;Temp;Humidity;BMP_temperature;BMP_pressure;BME280_temperature;BME280_humidity;BME280_pressure;Samples;Min_cycle;Max_cycle;Signal;HPM_P1;HPM_P2
2022/06/18 00:00:43;;;;;;;;;14.00;14.00;;;;;;;;5058460;28;45342;-70
2022/06/18 00:03:09;;;;;;;;;15.33;14.67;;;;;;;;5058339;28;45360;-70
2022/06/18 00:05:35;;;;;;;;;13.25;12.75;;;;;;;;5039968;28;45489;-70
2022/06/18 00:08:06;;;;;;;;;17.00;16.00;;;;;;;;5036285;28;45826;-69
2022/06/18 00:10:32;;;;;;;;;15.33;13.67;;;;;;;;5036231;28;48504;-70
2022/06/18 00:16:02;;;;;;;;;15.00;13.00;;;;;;;;5057638;28;45494;-70
2022/06/18 00:18:27;;;;;;;;;16.33;16.33;;;;;;;;5040954;28;45274;-70
2022/06/18 00:20:53;;;;;;;;;17.67;17.33;;;;;;;;5039599;28;46810;-69
2022/06/18 00:23:18;;;;;;;;;15.67;15.33;;;;;;;;5049627;28;45457;-70
2022/06/18 00:25:45;;;;;;;;;16.33;15.33;;;;;;;;5057051;28;45372;-69
2022/06/18 00:28:19;;;;;;;;;13.00;12.67;;;;;;;;5049285;28;45467;-69
2022/06/18 00:30:45;;;;;;;;;17.25;16.00;;;;;;;;5056794;28;45445;-69
2022/06/18 00:33:10;;;;;;;;;14.50;13.25;;;;;;;;5051730;28;45421;-69
2022/06/18 00:35:35;;;;;;;;;16.00;14.00;;;;;;;;5053173;28;45202;-69
2022/06/18 00:38:02;;;;;;;;;14.67;12.67;;;;;;;;5052572;28;45471;-70
2022/06/18 00:40:38;;;;;;;;;16.67;14.00;;;;;;;;5051713;28;45665;-69
2022/06/18 00:43:12;;;;;;;;;13.00;13.00;;;;;;;;5053063;28;45288;-70
2022/06/18 00:45:37;;;;;;;;;13.75;11.75;;;;;;;;5049869;28;45187;-70
2022/06/18 00:48:06;;;;;;;;;12.75;12.75;;;;;;;;5052675;28;45159;-70
2022/06/18 00:50:43;;;;;;;;;14.00;13.25;;;;;;;;5040934;28;46914;-70
2022/06/18 00:53:12;;;;;;;;;15.00;14.00;;;;;;;;5044965;28;45470;-70
2022/06/18 00:55:40;;;;;;;;;15.33;13.00;;;;;;;;5040379;28;45242;-69
2022/06/18 00:58:25;;;;;;;;;13.33;13.33;;;;;;;;5041371;28;45671;-70
2022/06/18 01:00:51;;;;;;;;;13.00;11.00;;;;;;;;5031231;28;45450;-69
2022/06/18 01:03:27;;;;;;;;;14.33;13.00;;;;;;;;5046255;28;45358;-70
2022/06/18 01:05:53;;;;;;;;;11.00;11.00;;;;;;;;5054931;28;45491;-69
2022/06/18 01:08:20;;;;;;;;;13.50;11.50;;;;;;;;5052899;28;45876;-70
2022/06/18 01:11:00;;;;;;;;;13.00;13.00;;;;;;;;5053175;28;47063;-69
2022/06/18 01:13:27;;;;;;;;;13.50;12.50;;;;;;;;5052979;28;45395;-69
2022/06/18 01:15:54;;;;;;;;;14.50;14.50;;;;;;;;5051890;28;45340;-69
2022/06/18 01:18:19;;;;;;;;;10.50;9.75;;;;;;;;5054573;28;45571;-69
2022/06/18 01:20:47;;;;;;;;;16.33;14.00;;;;;;;;5047667;28;45422;-69
2022/06/18 01:23:12;;;;;;;;;13.75;12.75;;;;;;;;5052287;28;45224;-69
2022/06/18 01:25:37;;;;;;;;;16.67;15.67;;;;;;;;5043423;28;45335;-70
2022/06/18 01:28:03;;;;;;;;;15.50;14.50;;;;;;;;5026735;28;47207;-70
2022/06/18 01:30:39;;;;;;;;;11.00;11.00;;;;;;;;5040946;28;46174;-70
2022/06/18 01:33:07;;;;;;;;;15.50;14.00;;;;;;;;5057216;28;45355;-70
2022/06/18 01:35:35;;;;;;;;;11.00;11.00;;;;;;;;5057754;28;45298;-70
2022/06/18 01:38:01;;;;;;;;;11.25;10.25;;;;;;;;5042596;28;45462;-70
2022/06/18 01:40:30;;;;;;;;;13.25;12.25;;;;;;;;5053421;28;46795;-70
2022/06/18 01:42:57;;;;;;;;;14.00;13.75;;;;;;;;5052062;28;45222;-70
2022/06/18 01:45:26;;;;;;;;;14.25;13.00;;;;;;;;5044283;28;45470;-70
2022/06/18 01:48:21;;;;;;;;;14.33;12.33;;;;;;;;5030128;28;47001;-70
2022/06/18 01:50:49;;;;;;;;;14.67;13.67;;;;;;;;5036547;28;46122;-70
2022/06/18 01:53:17;;;;;;;;;18.67;15.00;;;;;;;;5050363;28;45451;-70
2022/06/18 01:55:48;;;;;;;;;14.67;12.00;;;;;;;;5051468;28;45500;-70
2022/06/18 01:58:16;;;;;;;;;17.00;14.00;;;;;;;;5050456;28;45228;-70
2022/06/18 02:00:42;;;;;;;;;15.00;14.67;;;;;;;;5054217;28;46187;-70
2022/06/18 02:03:07;;;;;;;;;17.50;16.00;;;;;;;;5038532;28;45506;-70
2022/06/18 02:05:33;;;;;;;;;16.33;15.33;;;;;;;;5054862;28;46007;-70
2022/06/18 02:07:59;;;;;;;;;19.00;19.00;;;;;;;;5050592;28;45371;-70
2022/06/18 02:10:30;;;;;;;;;17.33;17.33;;;;;;;;5043083;28;45444;-70
2022/06/18 02:12:57;;;;;;;;;18.67;17.00;;;;;;;;5049730;28;45300;-70
2022/06/18 02:15:26;;;;;;;;;18.67;17.00;;;;;;;;5047061;28;45230;-70
2022/06/18 02:17:52;;;;;;;;;18.33;18.33;;;;;;;;5030109;28;46144;-70
2022/06/18 02:20:22;;;;;;;;;16.00;14.33;;;;;;;;5052238;28;45685;-69
2022/06/18 02:22:49;;;;;;;;;17.00;16.67;;;;;;;;5039910;28;45277;-69
2022/06/18 02:25:16;;;;;;;;;17.67;17.67;;;;;;;;5028655;28;45401;-69
2022/06/18 02:27:41;;;;;;;;;16.67;16.67;;;;;;;;5049863;28;45474;-69
2022/06/18 02:30:20;;;;;;;;;15.67;14.00;;;;;;;;5056270;28;45475;-69
2022/06/18 02:32:48;;;;;;;;;17.00;16.00;;;;;;;;5049321;28;45217;-70
2022/06/18 02:35:14;;;;;;;;;15.67;15.00;;;;;;;;5056515;28;45248;-70
2022/06/18 02:37:40;;;;;;;;;17.67;15.67;;;;;;;;5053873;28;45437;-71
2022/06/18 02:40:35;;;;;;;;;15.33;15.33;;;;;;;;5041011;28;45787;-70
2022/06/18 02:43:00;;;;;;;;;17.33;16.00;;;;;;;;5043624;28;45316;-70
2022/06/18 02:45:27;;;;;;;;;15.33;15.33;;;;;;;;5036335;28;45610;-70
2022/06/18 02:47:53;;;;;;;;;14.67;14.67;;;;;;;;5059963;28;45561;-70
2022/06/18 02:50:20;;;;;;;;;15.00;14.00;;;;;;;;5060683;28;45242;-70
2022/06/18 02:52:50;;;;;;;;;14.00;13.67;;;;;;;;5051526;28;45379;-70
2022/06/18 02:55:24;;;;;;;;;17.33;16.00;;;;;;;;5047028;28;45313;-70
2022/06/18 02:57:50;;;;;;;;;15.00;13.67;;;;;;;;5048295;28;45413;-70
2022/06/18 03:00:16;;;;;;;;;14.67;13.33;;;;;;;;5055925;28;45400;-70
2022/06/18 03:02:42;;;;;;;;;16.00;15.00;;;;;;;;5056998;28;45400;-71
2022/06/18 03:05:08;;;;;;;;;17.00;15.33;;;;;;;;5058744;28;45351;-69
2022/06/18 03:07:33;;;;;;;;;17.33;16.00;;;;;;;;5053264;28;45581;-70
2022/06/18 03:12:42;;;;;;;;;15.00;15.00;;;;;;;;5055389;28;45316;-68
2022/06/18 03:15:07;;;;;;;;;16.00;16.00;;;;;;;;5050764;28;45247;-69
2022/06/18 03:17:33;;;;;;;;;18.67;17.67;;;;;;;;5055518;28;45508;-70
2022/06/18 03:20:01;;;;;;;;;18.67;17.33;;;;;;;;5041347;28;48366;-71
2022/06/18 03:22:27;;;;;;;;;15.67;15.67;;;;;;;;5058094;28;45449;-71
2022/06/18 03:24:52;;;;;;;;;18.00;17.67;;;;;;;;5058252;28;45280;-71
2022/06/18 03:27:17;;;;;;;;;18.67;18.67;;;;;;;;5050721;28;45554;-71
2022/06/18 03:29:43;;;;;;;;;15.00;15.00;;;;;;;;5056896;28;45438;-70
2022/06/18 03:32:08;;;;;;;;;17.33;16.67;;;;;;;;5052375;28;45384;-69
2022/06/18 03:34:34;;;;;;;;;18.67;17.67;;;;;;;;5057498;28;45407;-69
2022/06/18 03:36:59;;;;;;;;;17.67;16.33;;;;;;;;5058788;28;45400;-68
2022/06/18 03:39:25;;;;;;;;;16.67;14.33;;;;;;;;5034589;28;47299;-69
2022/06/18 03:41:50;;;;;;;;;20.33;17.33;;;;;;;;5049142;28;45491;-68
2022/06/18 03:44:16;;;;;;;;;19.00;17.00;;;;;;;;5054013;28;45319;-69
2022/06/18 03:46:43;;;;;;;;;18.33;17.00;;;;;;;;5055539;28;45410;-69
2022/06/18 03:49:15;;;;;;;;;18.33;17.00;;;;;;;;5041938;28;45475;-69
2022/06/18 03:51:40;;;;;;;;;11.67;11.67;;;;;;;;5055473;28;45435;-69
2022/06/18 03:54:05;;;;;;;;;15.33;15.33;;;;;;;;5060292;28;45260;-69
2022/06/18 03:56:31;;;;;;;;;19.33;18.00;;;;;;;;5051320;28;45287;-69
2022/06/18 03:58:57;;;;;;;;;14.67;13.33;;;;;;;;5047744;28;45364;-69
2022/06/18 04:01:24;;;;;;;;;13.00;13.00;;;;;;;;5038044;28;45277;-69
2022/06/18 04:03:49;;;;;;;;;14.00;14.00;;;;;;;;5056362;28;45300;-68
2022/06/18 04:06:15;;;;;;;;;14.67;14.00;;;;;;;;5048936;28;45368;-69
2022/06/18 04:08:40;;;;;;;;;16.67;14.00;;;;;;;;5050428;28;45260;-69
2022/06/18 04:11:05;;;;;;;;;15.00;14.00;;;;;;;;5050133;28;45417;-69
2022/06/18 04:13:30;;;;;;;;;15.67;12.67;;;;;;;;5059507;28;45264;-69
2022/06/18 04:15:56;;;;;;;;;13.33;12.33;;;;;;;;5048863;28;45526;-69
2022/06/18 04:18:21;;;;;;;;;14.33;13.67;;;;;;;;5062208;28;46032;-69
2022/06/18 04:20:46;;;;;;;;;15.00;14.00;;;;;;;;5051790;28;45351;-69
2022/06/18 04:23:15;;;;;;;;;14.67;14.67;;;;;;;;5057504;28;45371;-70
2022/06/18 04:25:40;;;;;;;;;16.67;13.67;;;;;;;;5046815;28;45579;-70
2022/06/18 04:28:05;;;;;;;;;12.33;11.33;;;;;;;;5054486;28;46655;-70
2022/06/18 04:30:31;;;;;;;;;10.00;10.00;;;;;;;;5056163;28;45434;-69
2022/06/18 04:32:57;;;;;;;;;13.33;12.67;;;;;;;;5055402;28;45417;-69
2022/06/18 04:35:22;;;;;;;;;14.67;13.33;;;;;;;;5043365;28;45258;-69
2022/06/18 04:37:48;;;;;;;;;14.00;13.00;;;;;;;;5046831;28;45445;-70
2022/06/18 04:40:15;;;;;;;;;13.00;13.00;;;;;;;;5053313;28;45491;-69
2022/06/18 04:42:40;;;;;;;;;17.67;15.33;;;;;;;;5047054;28;45261;-69
2022/06/18 04:45:06;;;;;;;;;17.67;16.33;;;;;;;;5038200;28;46054;-70
2022/06/18 04:47:31;;;;;;;;;16.00;16.00;;;;;;;;5041901;28;45324;-70
2022/06/18 04:49:56;;;;;;;;;17.33;16.33;;;;;;;;5053538;28;46188;-70
2022/06/18 04:52:22;;;;;;;;;15.33;15.33;;;;;;;;5041725;28;45201;-70
2022/06/18 04:54:47;;;;;;;;;14.00;14.00;;;;;;;;5051694;28;45546;-70
2022/06/18 04:57:12;;;;;;;;;15.00;13.67;;;;;;;;5044356;28;45972;-70
2022/06/18 04:59:38;;;;;;;;;19.00;15.33;;;;;;;;5040466;28;45213;-69
2022/06/18 05:02:05;;;;;;;;;17.33;15.33;;;;;;;;5054336;28;45411;-70
2022/06/18 05:04:30;;;;;;;;;16.00;15.00;;;;;;;;5043476;28;45887;-69
2022/06/18 05:06:55;;;;;;;;;16.67;15.67;;;;;;;;5037383;28;46632;-70
2022/06/18 05:09:21;;;;;;;;;12.67;12.33;;;;;;;;5027181;28;45387;-70
2022/06/18 05:11:46;;;;;;;;;15.67;15.67;;;;;;;;5037572;28;45467;-69
2022/06/18 05:14:11;;;;;;;;;17.33;16.33;;;;;;;;5053735;28;45289;-69
2022/06/18 05:16:36;;;;;;;;;13.00;13.00;;;;;;;;5046389;28;45706;-69
2022/06/18 05:19:02;;;;;;;;;14.33;13.00;;;;;;;;5027339;28;45489;-69
2022/06/18 05:21:27;;;;;;;;;14.33;14.33;;;;;;;;5045473;28;45355;-70
2022/06/18 05:23:52;;;;;;;;;16.33;14.67;;;;;;;;5053135;28;45237;-69
2022/06/18 05:26:18;;;;;;;;;18.00;13.33;;;;;;;;5043791;28;46000;-71
2022/06/18 05:28:44;;;;;;;;;14.67;13.00;;;;;;;;5025887;28;45304;-70
2022/06/18 05:31:09;;;;;;;;;15.67;15.33;;;;;;;;5038795;28;45202;-70
2022/06/18 05:33:34;;;;;;;;;20.33;16.33;;;;;;;;5046117;28;45408;-70
2022/06/18 05:35:59;;;;;;;;;16.67;15.00;;;;;;;;5051071;28;45321;-69
2022/06/18 05:38:26;;;;;;;;;15.33;15.33;;;;;;;;5034280;28;45341;-70
2022/06/18 05:40:51;;;;;;;;;16.00;16.00;;;;;;;;5035553;28;45379;-70
2022/06/18 05:43:16;;;;;;;;;16.67;16.67;;;;;;;;5037168;28;45464;-71
2022/06/18 05:45:42;;;;;;;;;14.33;14.33;;;;;;;;5052802;28;45297;-69
2022/06/18 05:48:08;;;;;;;;;17.67;15.00;;;;;;;;5032726;28;45532;-70
2022/06/18 05:50:33;;;;;;;;;13.00;13.00;;;;;;;;5045830;28;45313;-70
2022/06/18 05:52:59;;;;;;;;;20.67;17.00;;;;;;;;5052924;28;45431;-70
2022/06/18 05:55:25;;;;;;;;;15.67;15.00;;;;;;;;5055463;28;45482;-70
2022/06/18 05:57:52;;;;;;;;;15.33;14.67;;;;;;;;5045353;28;45287;-70
2022/06/18 06:00:19;;;;;;;;;16.00;15.00;;;;;;;;5034893;28;45442;-70
2022/06/18 06:02:44;;;;;;;;;17.67;13.67;;;;;;;;5050065;28;45407;-68
2022/06/18 06:05:09;;;;;;;;;18.00;18.00;;;;;;;;5030278;28;47222;-71
2022/06/18 06:07:35;;;;;;;;;16.67;15.33;;;;;;;;5049369;28;45450;-70
2022/06/18 06:12:44;;;;;;;;;15.67;15.67;;;;;;;;5049483;28;45373;-70
2022/06/18 06:15:10;;;;;;;;;16.33;14.33;;;;;;;;5041244;28;46520;-70
2022/06/18 06:17:35;;;;;;;;;17.33;16.33;;;;;;;;5045944;28;45411;-69
2022/06/18 06:20:03;;;;;;;;;13.67;13.67;;;;;;;;5028706;28;45433;-70
2022/06/18 06:22:28;;;;;;;;;16.33;15.00;;;;;;;;5025322;28;46183;-70
2022/06/18 06:24:54;;;;;;;;;16.33;15.67;;;;;;;;5048609;28;45485;-70
2022/06/18 06:27:19;;;;;;;;;15.25;15.25;;;;;;;;5032501;28;45301;-70
2022/06/18 06:29:44;;;;;;;;;18.00;17.00;;;;;;;;5040759;28;45205;-70
2022/06/18 06:32:09;;;;;;;;;17.67;16.67;;;;;;;;5042153;28;45312;-70
2022/06/18 06:34:34;;;;;;;;;14.75;14.00;;;;;;;;5032678;28;47126;-70
2022/06/18 06:37:00;;;;;;;;;13.50;13.50;;;;;;;;5046480;28;45503;-70
2022/06/18 06:39:25;;;;;;;;;16.00;14.50;;;;;;;;5043041;28;45311;-70
2022/06/18 06:41:50;;;;;;;;;15.50;13.00;;;;;;;;5043295;28;45520;-69
2022/06/18 06:44:15;;;;;;;;;17.25;15.25;;;;;;;;5043107;28;45317;-69
2022/06/18 06:46:40;;;;;;;;;12.75;12.25;;;;;;;;5043826;28;45426;-69
2022/06/18 06:49:06;;;;;;;;;18.00;17.00;;;;;;;;5036273;28;45492;-69
2022/06/18 06:51:32;;;;;;;;;16.50;14.75;;;;;;;;5034277;28;46152;-69
2022/06/18 06:53:57;;;;;;;;;16.00;16.00;;;;;;;;5048848;28;45404;-70
2022/06/18 06:59:07;;;;;;;;;14.50;13.25;;;;;;;;5053456;28;45382;-69
2022/06/18 07:01:34;;;;;;;;;16.00;14.50;;;;;;;;5041257;28;45748;-69
2022/06/18 07:03:59;;;;;;;;;13.50;13.25;;;;;;;;5042642;28;46005;-69
2022/06/18 07:06:24;;;;;;;;;15.50;14.00;;;;;;;;5030223;28;45404;-68
2022/06/18 07:08:50;;;;;;;;;16.00;13.00;;;;;;;;5045258;28;45321;-69
2022/06/18 07:11:15;;;;;;;;;14.50;14.00;;;;;;;;5023016;28;46651;-70
2022/06/18 07:13:41;;;;;;;;;14.75;13.75;;;;;;;;5036912;28;45834;-69
2022/06/18 07:16:08;;;;;;;;;16.00;13.00;;;;;;;;5033361;28;45425;-69
2022/06/18 07:18:35;;;;;;;;;15.75;14.75;;;;;;;;5045288;28;45269;-69
2022/06/18 07:21:01;;;;;;;;;16.50;14.25;;;;;;;;5035184;28;45371;-70
2022/06/18 07:23:26;;;;;;;;;16.50;14.25;;;;;;;;5025641;28;46948;-70
2022/06/18 07:25:51;;;;;;;;;11.50;11.25;;;;;;;;5045330;28;45423;-70
2022/06/18 07:28:16;;;;;;;;;11.25;10.25;;;;;;;;5031753;28;45274;-72
2022/06/18 07:30:42;;;;;;;;;14.00;13.00;;;;;;;;5030500;28;46868;-69
2022/06/18 07:33:09;;;;;;;;;16.75;14.00;;;;;;;;5033045;28;46275;-69
2022/06/18 07:35:35;;;;;;;;;14.00;14.00;;;;;;;;5043299;28;45229;-70
2022/06/18 07:38:00;;;;;;;;;15.00;14.75;;;;;;;;5045954;28;45194;-70
2022/06/18 07:40:29;;;;;;;;;15.25;13.25;;;;;;;;5044909;28;45313;-69
2022/06/18 07:42:54;;;;;;;;;13.40;12.20;;;;;;;;5036637;28;46948;-70
2022/06/18 07:45:21;;;;;;;;;16.50;13.50;;;;;;;;5046139;28;45497;-70
2022/06/18 07:47:47;;;;;;;;;15.80;13.60;;;;;;;;5037607;28;45414;-70
2022/06/18 07:50:13;;;;;;;;;12.50;12.50;;;;;;;;5045987;28;45334;-70
2022/06/18 07:52:39;;;;;;;;;15.00;13.80;;;;;;;;5045198;28;45609;-70
2022/06/18 07:55:04;;;;;;;;;14.25;14.25;;;;;;;;5055180;28;45407;-70
2022/06/18 07:57:30;;;;;;;;;13.50;12.75;;;;;;;;5044531;28;45420;-69
2022/06/18 07:59:56;;;;;;;;;14.50;13.25;;;;;;;;5053724;28;45387;-70
2022/06/18 08:02:21;;;;;;;;;12.00;11.00;;;;;;;;5039728;28;46397;-70
2022/06/18 08:04:46;;;;;;;;;11.50;11.50;;;;;;;;5045720;28;45511;-69
2022/06/18 08:07:12;;;;;;;;;13.50;12.00;;;;;;;;5040093;28;45419;-70
2022/06/18 08:09:38;;;;;;;;;10.25;9.25;;;;;;;;5052555;28;45283;-70
2022/06/18 08:12:03;;;;;;;;;12.20;11.20;;;;;;;;5030712;28;47309;-70
2022/06/18 08:14:28;;;;;;;;;11.00;10.50;;;;;;;;5037992;28;45276;-69
2022/06/18 08:16:54;;;;;;;;;11.00;10.25;;;;;;;;5042478;28;45249;-69
2022/06/18 08:19:19;;;;;;;;;10.75;10.75;;;;;;;;5043709;28;45470;-70
2022/06/18 08:21:44;;;;;;;;;12.25;11.75;;;;;;;;5043846;28;46454;-69
2022/06/18 08:24:12;;;;;;;;;10.00;10.00;;;;;;;;5058302;28;45335;-69
2022/06/18 08:26:38;;;;;;;;;13.80;13.00;;;;;;;;5049581;28;45363;-69
2022/06/18 08:29:04;;;;;;;;;11.00;10.20;;;;;;;;5053470;28;45394;-69
2022/06/18 08:31:29;;;;;;;;;10.20;10.20;;;;;;;;5035217;28;48051;-69
2022/06/18 08:33:55;;;;;;;;;13.00;11.00;;;;;;;;5049890;28;45261;-69
2022/06/18 08:36:20;;;;;;;;;11.75;11.75;;;;;;;;5045207;28;45367;-68
2022/06/18 08:38:47;;;;;;;;;11.00;11.00;;;;;;;;5035571;28;45908;-68
2022/06/18 08:41:20;;;;;;;;;13.00;11.00;;;;;;;;5049565;28;46184;-69
2022/06/18 08:43:45;;;;;;;;;9.80;9.60;;;;;;;;5034777;28;45451;-70
2022/06/18 08:46:17;;;;;;;;;11.75;10.75;;;;;;;;5046207;28;45369;-69
2022/06/18 08:49:00;;;;;;;;;11.60;11.60;;;;;;;;5046484;28;45501;-69
2022/06/18 08:51:35;;;;;;;;;12.80;10.80;;;;;;;;5048670;28;45468;-69
2022/06/18 08:54:06;;;;;;;;;12.20;11.40;;;;;;;;5054177;28;45331;-69
2022/06/18 08:56:49;;;;;;;;;11.20;10.00;;;;;;;;5049769;28;45233;-69
2022/06/18 08:59:34;;;;;;;;;10.40;10.40;;;;;;;;5053885;28;45526;-69
2022/06/18 09:02:18;;;;;;;;;14.80;14.80;;;;;;;;5052405;28;46383;-69
2022/06/18 09:04:43;;;;;;;;;10.60;10.40;;;;;;;;5045519;28;45295;-69
2022/06/18 09:07:27;;;;;;;;;10.00;10.00;;;;;;;;5051226;28;46444;-69
2022/06/18 09:09:55;;;;;;;;;11.60;11.40;;;;;;;;5044541;28;45348;-69
2022/06/18 09:12:30;;;;;;;;;12.40;12.40;;;;;;;;5052294;28;45274;-69
2022/06/18 09:14:55;;;;;;;;;14.00;13.40;;;;;;;;5058422;28;45237;-68
2022/06/18 09:17:26;;;;;;;;;11.75;11.75;;;;;;;;5047546;28;45375;-70
2022/06/18 09:20:06;;;;;;;;;10.40;10.40;;;;;;;;5041367;28;46364;-68
2022/06/18 09:22:34;;;;;;;;;11.60;11.60;;;;;;;;5044314;28;45463;-68
2022/06/18 09:25:05;;;;;;;;;14.00;12.60;;;;;;;;5055515;28;45496;-68
2022/06/18 09:27:37;;;;;;;;;16.80;16.80;;;;;;;;5050471;28;45258;-67
2022/06/18 09:30:21;;;;;;;;;11.80;11.80;;;;;;;;5053341;28;45343;-70
2022/06/18 09:32:49;;;;;;;;;12.40;10.20;;;;;;;;5052794;28;45340;-69
2022/06/18 09:35:20;;;;;;;;;12.60;12.20;;;;;;;;5050292;28;45530;-69
2022/06/18 09:37:48;;;;;;;;;9.60;9.40;;;;;;;;5053319;28;45296;-68
2022/06/18 09:40:18;;;;;;;;;13.40;11.80;;;;;;;;5045947;28;45626;-69
2022/06/18 09:43:04;;;;;;;;;9.60;9.60;;;;;;;;5053385;28;46367;-69
2022/06/18 09:45:32;;;;;;;;;11.00;10.00;;;;;;;;5013205;28;45351;-69
2022/06/18 09:47:57;;;;;;;;;12.00;11.20;;;;;;;;5053183;28;45338;-69
2022/06/18 09:50:29;;;;;;;;;12.75;12.00;;;;;;;;5042854;28;45384;-69
2022/06/18 09:53:03;;;;;;;;;13.20;11.00;;;;;;;;5054184;28;46421;-69
2022/06/18 09:55:37;;;;;;;;;10.00;8.80;;;;;;;;5038105;28;45415;-69
2022/06/18 09:58:06;;;;;;;;;10.20;9.00;;;;;;;;5052684;28;45462;-69
2022/06/18 10:00:32;;;;;;;;;13.00;8.40;;;;;;;;5054329;28;45384;-69
2022/06/18 10:03:05;;;;;;;;;11.20;11.20;;;;;;;;5033449;28;47595;-69
2022/06/18 10:08:43;;;;;;;;;8.80;8.80;;;;;;;;5045884;28;45494;-69
2022/06/18 10:11:11;;;;;;;;;9.50;8.00;;;;;;;;5045944;28;45359;-69
2022/06/18 10:13:42;;;;;;;;;10.60;9.40;;;;;;;;5038647;28;47689;-68
2022/06/18 10:16:12;;;;;;;;;9.20;8.60;;;;;;;;5050077;28;45428;-69
2022/06/18 10:18:55;;;;;;;;;9.80;8.80;;;;;;;;5057926;28;45297;-69
2022/06/18 10:21:35;;;;;;;;;10.20;8.00;;;;;;;;5032313;28;46010;-70
2022/06/18 10:24:11;;;;;;;;;9.00;7.80;;;;;;;;5027656;28;48106;-69
2022/06/18 10:26:45;;;;;;;;;6.40;6.40;;;;;;;;5046224;28;45379;-68
2022/06/18 10:29:40;;;;;;;;;6.60;6.60;;;;;;;;5053998;28;45187;-72
2022/06/18 10:32:17;;;;;;;;;9.80;9.00;;;;;;;;5036558;28;45213;-72
2022/06/18 10:34:55;;;;;;;;;9.00;9.00;;;;;;;;5054658;28;45482;-72
2022/06/18 10:37:20;;;;;;;;;9.20;9.00;;;;;;;;5048053;28;45471;-69
2022/06/18 10:39:57;;;;;;;;;9.00;8.00;;;;;;;;5051234;28;45533;-68
2022/06/18 10:42:39;;;;;;;;;8.80;7.80;;;;;;;;5049885;28;45495;-68
2022/06/18 10:45:23;;;;;;;;;9.00;9.00;;;;;;;;5045509;28;46299;-69
2022/06/18 10:47:50;;;;;;;;;11.40;10.00;;;;;;;;5044207;28;45245;-69
2022/06/18 10:50:17;;;;;;;;;15.60;10.00;;;;;;;;5052156;28;45466;-69
2022/06/18 10:52:43;;;;;;;;;10.20;7.80;;;;;;;;5043671;28;45306;-70
2022/06/18 10:55:11;;;;;;;;;13.25;13.25;;;;;;;;5054063;28;45442;-68
2022/06/18 10:57:37;;;;;;;;;11.40;9.40;;;;;;;;5051259;28;45336;-69
2022/06/18 11:00:10;;;;;;;;;10.00;10.00;;;;;;;;5058088;28;45451;-69
2022/06/18 11:02:37;;;;;;;;;9.00;9.00;;;;;;;;5056383;28;45392;-69
2022/06/18 11:05:04;;;;;;;;;11.80;9.80;;;;;;;;5052735;28;45251;-68
2022/06/18 11:07:32;;;;;;;;;10.60;9.00;;;;;;;;5045783;28;45317;-69
2022/06/18 11:09:59;;;;;;;;;8.80;8.60;;;;;;;;5060656;28;45373;-69
2022/06/18 11:12:24;;;;;;;;;10.80;10.00;;;;;;;;5055021;28;45239;-69
2022/06/18 11:14:49;;;;;;;;;9.25;8.25;;;;;;;;5051271;28;46161;-69
2022/06/18 11:17:29;;;;;;;;;11.25;10.00;;;;;;;;5050689;28;45257;-68
2022/06/18 11:20:05;;;;;;;;;9.60;9.60;;;;;;;;5049358;28;45349;-68
2022/06/18 11:22:30;;;;;;;;;10.00;10.00;;;;;;;;5051265;28;45413;-68
2022/06/18 11:24:57;;;;;;;;;10.00;7.75;;;;;;;;5053820;28;45963;-68
2022/06/18 11:27:23;;;;;;;;;10.40;9.40;;;;;;;;5042947;28;45335;-68
2022/06/18 11:29:50;;;;;;;;;12.20;10.80;;;;;;;;5036408;28;45575;-69
2022/06/18 11:32:18;;;;;;;;;13.60;10.40;;;;;;;;5031965;28;47557;-68
2022/06/18 11:34:45;;;;;;;;;9.60;9.20;;;;;;;;5041722;28;46406;-68
2022/06/18 11:37:16;;;;;;;;;10.40;8.40;;;;;;;;5035443;28;45502;-68
2022/06/18 11:39:41;;;;;;;;;9.80;8.60;;;;;;;;5051662;28;45253;-69
2022/06/18 11:42:16;;;;;;;;;10.25;9.25;;;;;;;;5053901;28;45269;-69
2022/06/18 11:44:54;;;;;;;;;12.40;8.60;;;;;;;;5044335;28;45389;-69
2022/06/18 11:47:23;;;;;;;;;9.60;9.40;;;;;;;;5057004;28;45326;-69
2022/06/18 11:50:01;;;;;;;;;8.60;6.20;;;;;;;;5042621;28;45333;-68
2022/06/18 11:52:26;;;;;;;;;10.60;8.20;;;;;;;;5052411;28;45467;-69
2022/06/18 11:55:00;;;;;;;;;14.00;10.00;;;;;;;;5053895;28;46160;-69
2022/06/18 11:57:25;;;;;;;;;9.20;9.00;;;;;;;;5024888;28;45309;-69
2022/06/18 12:00:20;;;;;;;;;8.00;8.00;;;;;;;;5058362;28;45347;-68
2022/06/18 12:03:00;;;;;;;;;8.40;8.40;;;;;;;;5021329;28;46621;-68
2022/06/18 12:05:33;;;;;;;;;9.80;8.80;;;;;;;;5039260;28;45615;-68
2022/06/18 12:07:59;;;;;;;;;7.60;7.60;;;;;;;;5056584;28;45410;-68
2022/06/18 12:10:43;;;;;;;;;9.60;9.40;;;;;;;;5054218;28;45441;-68
2022/06/18 12:13:17;;;;;;;;;7.20;6.40;;;;;;;;5051446;28;45248;-68
2022/06/18 12:15:47;;;;;;;;;9.20;7.80;;;;;;;;5035523;28;47362;-68
2022/06/18 12:18:12;;;;;;;;;5.20;2.60;;;;;;;;5040765;28;45317;-68
2022/06/18 12:20:58;;;;;;;;;10.25;8.25;;;;;;;;5056376;28;45670;-68
2022/06/18 12:23:32;;;;;;;;;12.20;10.00;;;;;;;;5023757;28;45463;-68
2022/06/18 12:26:07;;;;;;;;;8.40;7.00;;;;;;;;5052200;28;45491;-68
2022/06/18 12:28:38;;;;;;;;;9.40;6.80;;;;;;;;5035409;28;45496;-68
2022/06/18 12:31:12;;;;;;;;;12.40;9.40;;;;;;;;5039700;28;45612;-68
2022/06/18 12:33:47;;;;;;;;;11.00;8.80;;;;;;;;5032789;28;46284;-68
2022/06/18 12:36:23;;;;;;;;;11.40;8.00;;;;;;;;5055564;28;46249;-67
2022/06/18 12:38:48;;;;;;;;;8.40;8.00;;;;;;;;5060217;28;45142;-67
2022/06/18 12:41:19;;;;;;;;;10.75;7.25;;;;;;;;5035046;28;45577;-67
2022/06/18 12:44:03;;;;;;;;;8.60;8.40;;;;;;;;5047637;28;46531;-68
2022/06/18 12:46:38;;;;;;;;;7.60;7.00;;;;;;;;5048867;28;45399;-68
2022/06/18 12:49:10;;;;;;;;;9.00;8.60;;;;;;;;5048081;28;45374;-68
2022/06/18 12:51:35;;;;;;;;;14.00;10.20;;;;;;;;5052141;28;45309;-68
2022/06/18 12:54:09;;;;;;;;;6.00;6.00;;;;;;;;5058469;28;45412;-67
2022/06/18 12:56:53;;;;;;;;;10.40;8.60;;;;;;;;5033639;28;47390;-67
2022/06/18 12:59:21;;;;;;;;;8.20;6.80;;;;;;;;5044561;28;45245;-67
2022/06/18 13:01:52;;;;;;;;;12.40;9.20;;;;;;;;5054067;28;45505;-68
2022/06/18 13:04:26;;;;;;;;;8.40;8.40;;;;;;;;5055718;28;45419;-68
2022/06/18 13:07:10;;;;;;;;;8.20;7.00;;;;;;;;5046940;28;45419;-67
2022/06/18 13:09:38;;;;;;;;;12.80;8.40;;;;;;;;5054407;28;45253;-68
2022/06/18 13:12:13;;;;;;;;;13.20;10.80;;;;;;;;5047857;28;45228;-69
2022/06/18 13:14:56;;;;;;;;;9.60;9.00;;;;;;;;5049997;28;45437;-68
2022/06/18 13:17:26;;;;;;;;;11.00;8.40;;;;;;;;5053964;28;45487;-67
2022/06/18 13:19:56;;;;;;;;;9.80;8.00;;;;;;;;5051778;28;45289;-68
2022/06/18 13:22:22;;;;;;;;;9.40;7.40;;;;;;;;5031865;28;45469;-68
2022/06/18 13:30:42;;;;;;;;;8.40;8.40;;;;;;;;5052050;28;45268;-67
2022/06/18 13:33:12;;;;;;;;;12.00;10.60;;;;;;;;5050317;28;45482;-68
2022/06/18 13:35:45;;;;;;;;;10.80;9.00;;;;;;;;5055243;28;45337;-68
2022/06/18 13:38:10;;;;;;;;;11.80;9.80;;;;;;;;5053715;28;45300;-69
2022/06/18 13:40:54;;;;;;;;;11.75;9.75;;;;;;;;5025300;28;45277;-69
2022/06/18 13:43:39;;;;;;;;;11.60;8.80;;;;;;;;5047907;28;45412;-69
2022/06/18 13:46:04;;;;;;;;;9.00;6.00;;;;;;;;5048616;28;45542;-69
2022/06/18 13:48:36;;;;;;;;;11.50;9.00;;;;;;;;5040824;28;47610;-69
2022/06/18 13:51:01;;;;;;;;;8.20;8.20;;;;;;;;5035786;28;45346;-69
2022/06/18 13:53:26;;;;;;;;;10.50;9.75;;;;;;;;5048034;28;45420;-69
2022/06/18 13:55:52;;;;;;;;;14.00;11.25;;;;;;;;5041103;28;45725;-69
2022/06/18 13:58:21;;;;;;;;;10.50;10.25;;;;;;;;5045556;28;46736;-69
2022/06/18 14:00:47;;;;;;;;;13.80;10.20;;;;;;;;5052473;28;45356;-69
2022/06/18 14:03:18;;;;;;;;;9.50;8.50;;;;;;;;5052328;28;45430;-69
2022/06/18 14:05:43;;;;;;;;;12.20;10.40;;;;;;;;5052115;28;45454;-69
2022/06/18 14:08:31;;;;;;;;;9.50;9.50;;;;;;;;5058095;28;45358;-69
2022/06/18 14:11:01;;;;;;;;;12.80;9.60;;;;;;;;5038172;28;45373;-70
2022/06/18 14:13:26;;;;;;;;;9.20;9.20;;;;;;;;5058458;28;45295;-69
2022/06/18 14:15:58;;;;;;;;;8.50;8.50;;;;;;;;5034894;28;46588;-70
2022/06/18 14:18:24;;;;;;;;;12.20;10.60;;;;;;;;5029435;28;47996;-69
2022/06/18 14:20:58;;;;;;;;;12.75;11.75;;;;;;;;5035199;28;45884;-69
2022/06/18 14:23:37;;;;;;;;;9.80;9.80;;;;;;;;5049794;28;45233;-69
2022/06/18 14:26:16;;;;;;;;;11.20;10.80;;;;;;;;5054200;28;45308;-69
2022/06/18 14:28:56;;;;;;;;;12.00;10.80;;;;;;;;5055271;28;45436;-70
2022/06/18 14:31:34;;;;;;;;;11.00;10.00;;;;;;;;5047060;28;45448;-69
2022/06/18 14:34:12;;;;;;;;;13.80;10.40;;;;;;;;5047724;28;45460;-69
2022/06/18 14:36:40;;;;;;;;;9.00;8.20;;;;;;;;5030750;28;45565;-69
2022/06/18 14:39:14;;;;;;;;;11.80;10.40;;;;;;;;5049974;28;45417;-70
2022/06/18 14:41:40;;;;;;;;;9.00;8.60;;;;;;;;5044996;28;45502;-69
2022/06/18 14:44:24;;;;;;;;;11.00;9.80;;;;;;;;5048527;28;45308;-69
2022/06/18 14:46:49;;;;;;;;;7.80;7.00;;;;;;;;5044759;28;45615;-69
2022/06/18 14:49:14;;;;;;;;;13.60;12.00;;;;;;;;5059456;28;46489;-69
2022/06/18 14:51:48;;;;;;;;;11.75;10.25;;;;;;;;5042183;28;45416;-70
2022/06/18 14:54:29;;;;;;;;;10.20;9.40;;;;;;;;5059878;28;45162;-69